1N3 weather

Albert Airport
Philipsburg, Pennsylvania, United States

Public forecast

Using degrees Fahrenheit for public forecast. Weather courtesy of forecast.io.

METAR (pilot weather report)

Closest report is Clearfield Lawrence Airport, 9.0 nm (16.7 km) WNW. Retrieved 2019/07/20 14:40 UTC (12 minutes ago):

KFIG 201440Z AUTO VRB03KT 10SM OVC013 24/22 A2999 RMK AO2 T02440217

TAF (pilot weather forecast)

Closest forecast is University Park Airport, 19.3 nm (35.8 km) ESE. Retrieved 2019/07/20 12:39 UTC (2 hours ago):

TAF KUNV 201136Z 2012/2112 25007KT P6SM BKN040 FM201700 26008KT P6SM BKN050 FM210200 25005KT P6SM SCT040 FM211100 VRB03KT 5SM BR SKC